Fin-ally — WDG3773 — position and weather

sailwx.info

Track history (hours):
 
Tides and Currents Weather Stations Pressure Air Temp Water Temp Dewpoint Dewpoint Depression Visibility Wind Speed Wind Dir Waves Ship Positions

Fin-ally

Owner: Siegel, Andrew, Newtown, CT. More information available from US FCC via Universal Licensing System and Coast Guard Vessel Documentation Center.

Last reported at 2014-Nov-12 16:33 UTC. Time now 2014-Nov-29 01:19 UTC.
Position N 39°32' W 075°33'.
Warning: this ship's position is 16 days out of date.

Type: Pleasure craft. MMSI: 367529510.

Date/timePositionNaut miles runAvg speedWind from/ knotsBaromVisibWave heightAir tempDewpointWater temp
2014-Nov-12 16:33N 39°32' W 075°33'46 6.1
2014-Nov-12 09:06N 38°57' W 074°55'0 0.0
2014-Nov-12 08:33N 38°57' W 074°55'0 0.0
2014-Nov-12 06:27N 38°57' W 074°55'0 0.0
2014-Nov-11 23:30N 38°57' W 074°55'12210.9
2014-Nov-11 12:20N 39°31' W 072°24'1 0.9
2014-Nov-11 11:28N 39°31' W 072°23'1 1.0
2014-Nov-11 10:14N 39°30' W 072°22'4 0.9
2014-Nov-11 06:04N 39°28' W 072°18'81 4.9
2014-Nov-10 13:33N 40°48' W 071°57'2322.6
2014-Nov-10 12:33N 41°10' W 071°59'1313.0
2014-Nov-10 11:33N 41°20' W 072°11'  
Track history (hours):
 
Tides and Currents Weather Stations Pressure Air Temp Water Temp Dewpoint Dewpoint Depression Visibility Wind Speed Wind Dir Waves Ship Positions

Fin-ally

Owner: Siegel, Andrew, Newtown, CT. More information available from US FCC via Universal Licensing System and Coast Guard Vessel Documentation Center.

Last reported at 2014-Nov-12 16:33 UTC. Time now 2014-Nov-29 01:19 UTC.
Position N 39°32' W 075°33'.
Warning: this ship's position is 16 days out of date.

Type: Pleasure craft. MMSI: 367529510.

Date/timePositionNaut miles runAvg speedWind from/ knotsBaromVisibWave heightAir tempDewpointWater temp
2014-Nov-12 16:33N 39°32' W 075°33'46 6.1
2014-Nov-12 09:06N 38°57' W 074°55'0 0.0
2014-Nov-12 08:33N 38°57' W 074°55'0 0.0
2014-Nov-12 06:27N 38°57' W 074°55'0 0.0
2014-Nov-11 23:30N 38°57' W 074°55'12210.9
2014-Nov-11 12:20N 39°31' W 072°24'1 0.9
2014-Nov-11 11:28N 39°31' W 072°23'1 1.0
2014-Nov-11 10:14N 39°30' W 072°22'4 0.9
2014-Nov-11 06:04N 39°28' W 072°18'81 4.9
2014-Nov-10 13:33N 40°48' W 071°57'2322.6
2014-Nov-10 12:33N 41°10' W 071°59'1313.0
2014-Nov-10 11:33N 41°20' W 072°11'  

Dump ship's entire track history